This is the latest recevied weather packets stored in our database for station/object KU4DD. If no packets are shown the sender has not sent any weather packets the latest 10 day(s).
| Time | Temp. | Humidity | Pressure | Rain* | Wind** | Luminosity | Snow |
|---|---|---|---|---|---|---|---|
| 1787554113 | 21.11° C | 90% | 1014.6 hPa | 0 mm | - | 0 W/m² | - |
| 1787551670 | 20.56° C | 90% | 1014.9 hPa | 0 mm | - | 0 W/m² | - |
| 1787550443 | 20° C | 92% | 1015.2 hPa | 0 mm | - | 0 W/m² | - |
| 1787548617 | 20° C | 94% | 1015.2 hPa | 0 mm | - | 0 W/m² | - |
| 1787547702 | 20° C | 93% | 1014.9 hPa | 0 mm | - | 0 W/m² | - |
| 1787546787 | 20° C | 93% | 1014.9 hPa | 0 mm | - | 0 W/m² | - |
| 1787546476 | 20° C | 93% | 1014.9 hPa | 0 mm | - | 0 W/m² | - |
| 1787544036 | 20.56° C | 92% | 1014.9 hPa | 0 mm | - | 0 W/m² | - |
| 1787543116 | 20.56° C | 91% | 1014.9 hPa | 0 mm | - | 0 W/m² | - |
| 1787539156 | 21.67° C | 87% | 1014.9 hPa | 0 mm | - | 0 W/m² | - |
| 1787538232 | 21.67° C | 88% | 1014.9 hPa | 0 mm | - | 0 W/m² | - |
| 1787537011 | 21.67° C | 87% | 1014.9 hPa | 0 mm | - | 0 W/m² | - |
| 1787536396 | 22.22° C | 85% | 1014.9 hPa | 0 mm | - | 0 W/m² | - |
| 1787535774 | 22.22° C | 81% | 1014.6 hPa | 0 mm | - | 0 W/m² | - |
| 1787535531 | 22.78° C | 81% | 1014.6 hPa | 0 mm | - | 0 W/m² | - |
| 1787534611 | 23.33° C | 78% | 1014.6 hPa | 0 mm | - | 0 W/m² | - |
| 1787533686 | 23.33° C | 78% | 1014.6 hPa | 0 mm | - | 0 W/m² | - |
| 1787532441 | 23.89° C | 76% | 1014.2 hPa | 0 mm | - | 0 W/m² | - |
| 1787529979 | 27.22° C | 60% | 1013.5 hPa | 0 mm | - | 0 W/m² | - |
| 1787525722 | 30.56° C | 46% | 1013.2 hPa | 0 mm | - | 39 W/m² | - |
| 1787523288 | 32.22° C | 41% | 1013.2 hPa | 0 mm | - | 74 W/m² | - |
| 1787521453 | 32.78° C | 37% | 1012.9 hPa | 0 mm | - | 148 W/m² | - |
| 1787520916 | 32.78° C | 40% | 1012.9 hPa | 0 mm | - | 258 W/m² | - |
| 1787520604 | 32.78° C | 41% | 1012.9 hPa | 0 mm | - | 318 W/m² | - |
| 1787520290 | 32.78° C | 41% | 1012.9 hPa | 0 mm | - | 371 W/m² | - |
* Rain latest hour (hover to see other rain measurements)
** Current wind speed in m/s (hover to see current wind gust speed)